Time;durP1;ratioP1;P1;durP2;ratioP2;P2;SDS_P1;SDS_P2;PMS_P1;PMS_P2;Temp;Humidity;BMP_temperature;BMP_pressure;BME280_temperature;BME280_humidity;BME280_pressure;Samples;Min_cycle;Max_cycle;Signal;HPM_P1;HPM_P2
2021/05/26 00:02:16;;;;;;;1999.90;999.90;;;;;;;16.46;100.00;95811.59;5070379;28;20236;-58
2021/05/26 00:04:43;;;;;;;1999.90;999.90;;;;;;;16.36;100.00;95802.25;5070387;28;20196;-61
2021/05/26 00:07:09;;;;;;;1999.90;999.90;;;;;;;16.36;100.00;95797.78;5070296;28;20197;-58
2021/05/26 00:09:36;;;;;;;1999.90;999.90;;;;;;;16.39;100.00;95793.00;5069772;28;20228;-60
2021/05/26 00:12:05;;;;;;;1999.90;999.90;;;;;;;16.43;100.00;95786.78;5070076;28;20232;-60
2021/05/26 00:14:31;;;;;;;1999.90;999.90;;;;;;;16.47;100.00;95794.75;5070468;28;20203;-60
2021/05/26 00:16:58;;;;;;;1999.90;999.90;;;;;;;16.49;100.00;95797.84;5070172;28;20189;-60
2021/05/26 00:19:25;;;;;;;1999.90;999.90;;;;;;;16.44;100.00;95798.78;5069963;28;20224;-60
2021/05/26 00:21:52;;;;;;;1999.90;999.90;;;;;;;16.45;100.00;95802.94;5069950;28;20719;-60
2021/05/26 00:24:19;;;;;;;1999.90;999.90;;;;;;;16.45;100.00;95802.16;5069891;28;20273;-62
2021/05/26 00:26:45;;;;;;;1999.90;999.90;;;;;;;16.42;100.00;95798.34;5070094;28;20641;-61
2021/05/26 00:29:13;;;;;;;1999.90;999.90;;;;;;;16.39;100.00;95806.09;5070010;28;20228;-61
2021/05/26 00:31:40;;;;;;;1999.90;999.90;;;;;;;16.50;100.00;95800.13;5069900;28;20663;-60
2021/05/26 00:34:08;;;;;;;1999.90;999.90;;;;;;;16.50;100.00;95799.34;5070017;28;20314;-60
2021/05/26 00:36:35;;;;;;;1999.90;999.90;;;;;;;16.39;100.00;95798.22;5070223;28;20205;-59
2021/05/26 00:39:02;;;;;;;1999.90;999.90;;;;;;;16.31;100.00;95797.97;5070007;28;20200;-60
2021/05/26 00:41:32;;;;;;;1999.90;999.90;;;;;;;16.26;100.00;95800.78;5070723;28;20232;-59
2021/05/26 00:43:59;;;;;;;1999.90;999.90;;;;;;;16.12;100.00;95802.16;5069836;28;20227;-60
2021/05/26 00:46:27;;;;;;;1999.90;999.90;;;;;;;15.92;100.00;95801.06;5069708;28;20249;-60
2021/05/26 00:48:53;;;;;;;1999.90;999.90;;;;;;;15.81;100.00;95800.66;5069911;28;20201;-60
2021/05/26 00:51:20;;;;;;;1999.90;999.90;;;;;;;15.72;100.00;95804.44;5069682;28;20193;-60
2021/05/26 00:53:47;;;;;;;1999.90;999.90;;;;;;;15.66;100.00;95803.06;5069592;28;20200;-59
2021/05/26 00:56:14;;;;;;;1999.90;999.90;;;;;;;15.59;100.00;95793.09;5069797;28;20193;-61
2021/05/26 00:58:41;;;;;;;1999.90;999.90;;;;;;;15.63;100.00;95798.47;5069820;28;20200;-59
2021/05/26 01:01:08;;;;;;;1999.90;999.90;;;;;;;15.53;100.00;95804.84;5070010;28;20207;-60
2021/05/26 01:03:36;;;;;;;1999.90;999.90;;;;;;;15.63;100.00;95803.72;5069634;28;20667;-61
2021/05/26 01:06:02;;;;;;;1999.90;999.90;;;;;;;15.62;100.00;95802.19;5069991;28;20189;-60
2021/05/26 01:08:29;;;;;;;1999.90;999.90;;;;;;;15.41;100.00;95807.34;5069890;28;20203;-60
2021/05/26 01:10:56;;;;;;;1999.90;999.90;;;;;;;15.43;100.00;95805.19;5069667;28;20221;-60
2021/05/26 01:13:25;;;;;;;1999.90;999.90;;;;;;;15.32;100.00;95810.00;5069970;28;20683;-60
2021/05/26 01:15:52;;;;;;;1999.90;999.90;;;;;;;15.34;100.00;95815.66;5069528;28;20193;-60
2021/05/26 01:18:26;;;;;;;1999.90;999.90;;;;;;;15.36;100.00;95810.91;5069888;28;20590;-60
2021/05/26 01:20:56;;;;;;;1999.90;999.90;;;;;;;15.30;100.00;95800.91;5070814;28;20232;-60
2021/05/26 01:23:24;;;;;;;1999.90;999.90;;;;;;;15.22;100.00;95815.59;5073304;28;20273;-61
2021/05/26 01:25:55;;;;;;;1999.90;999.90;;;;;;;15.27;100.00;95809.41;5073084;28;20200;-62
2021/05/26 01:28:22;;;;;;;1999.90;999.90;;;;;;;15.31;100.00;95812.94;5072943;28;20721;-60
2021/05/26 01:30:49;;;;;;;1999.90;999.90;;;;;;;15.31;100.00;95805.84;5073179;28;20228;-60
2021/05/26 01:33:17;;;;;;;1999.90;999.90;;;;;;;15.34;100.00;95813.06;5073070;28;20192;-61
2021/05/26 01:35:45;;;;;;;1999.90;999.90;;;;;;;15.37;100.00;95814.28;5072939;28;20684;-59
2021/05/26 01:39:04;;;;;;;1999.90;999.90;;;;;;;15.21;100.00;95819.28;5072865;28;20196;-59
2021/05/26 01:41:32;;;;;;;1999.90;999.90;;;;;;;15.32;100.00;95820.47;5072891;28;20247;-60
2021/05/26 01:44:02;;;;;;;1999.90;999.90;;;;;;;15.39;100.00;95823.34;5072706;28;20236;-59
2021/05/26 01:46:28;;;;;;;1999.90;999.90;;;;;;;15.34;100.00;95820.16;5072644;28;20620;-60
2021/05/26 01:48:55;;;;;;;1999.90;999.90;;;;;;;15.29;100.00;95815.84;5072787;28;20200;-60
2021/05/26 01:51:22;;;;;;;1999.90;999.90;;;;;;;15.36;100.00;95808.28;5072529;28;20688;-60
2021/05/26 01:53:52;;;;;;;1999.90;999.90;;;;;;;15.21;100.00;95808.03;5072780;28;20675;-60
2021/05/26 01:56:20;;;;;;;1999.90;999.90;;;;;;;15.29;100.00;95809.88;5072387;28;20207;-59
2021/05/26 01:58:50;;;;;;;1999.90;999.90;;;;;;;15.30;100.00;95804.31;5072908;28;20204;-58
2021/05/26 02:01:17;;;;;;;1999.90;999.90;;;;;;;15.30;100.00;95809.53;5072777;28;20196;-59
2021/05/26 02:03:45;;;;;;;1999.90;999.90;;;;;;;15.24;100.00;95804.81;5072709;28;20249;-60
2021/05/26 02:06:13;;;;;;;1999.90;999.90;;;;;;;15.22;100.00;95812.97;5072667;28;20194;-60
2021/05/26 02:08:40;;;;;;;1999.90;999.90;;;;;;;15.29;100.00;95815.09;5072504;28;20266;-61
2021/05/26 02:13:52;;;;;;;1999.90;999.90;;;;;;;15.38;100.00;95816.59;5072557;28;20241;-60
2021/05/26 02:16:19;;;;;;;1999.90;999.90;;;;;;;15.38;100.00;95815.84;5072407;28;20200;-60
2021/05/26 02:18:46;;;;;;;1999.90;999.90;;;;;;;15.33;100.00;95811.53;5072318;28;20196;-60
2021/05/26 02:21:13;;;;;;;1999.90;999.90;;;;;;;15.29;100.00;95815.84;5072011;28;20228;-59
2021/05/26 02:23:39;;;;;;;1999.90;999.90;;;;;;;15.29;100.00;95823.69;5072125;28;20220;-58
2021/05/26 02:26:06;;;;;;;1999.90;999.90;;;;;;;15.26;100.00;95816.50;5071860;28;20195;-60
2021/05/26 02:28:33;;;;;;;1999.90;999.90;;;;;;;15.25;100.00;95820.19;5071859;28;20203;-61
2021/05/26 02:31:01;;;;;;;1999.90;999.90;;;;;;;15.20;100.00;95828.22;5071291;28;20235;-60
2021/05/26 02:33:27;;;;;;;1999.90;999.90;;;;;;;15.16;100.00;95835.16;5071831;28;20207;-59
2021/05/26 02:35:54;;;;;;;1999.90;999.90;;;;;;;14.99;100.00;95825.50;5071726;28;20188;-59
2021/05/26 02:38:21;;;;;;;1999.90;999.90;;;;;;;14.98;100.00;95836.31;5071682;28;20735;-59
2021/05/26 02:40:48;;;;;;;1999.90;999.90;;;;;;;14.97;100.00;95829.53;5072004;28;20552;-61
2021/05/26 02:43:14;;;;;;;1999.90;999.90;;;;;;;15.06;100.00;95838.13;5071544;28;20193;-59
2021/05/26 02:45:41;;;;;;;1999.90;999.90;;;;;;;15.09;100.00;95843.50;5071497;28;20189;-61
2021/05/26 02:48:09;;;;;;;1999.90;999.90;;;;;;;15.10;100.00;95844.25;5072068;28;20218;-59
2021/05/26 02:50:36;;;;;;;1999.90;999.90;;;;;;;15.05;100.00;95842.59;5071389;28;20234;-60
2021/05/26 02:53:03;;;;;;;1999.90;999.90;;;;;;;15.12;100.00;95849.97;5071585;28;20197;-61
2021/05/26 02:55:30;;;;;;;1999.90;999.90;;;;;;;15.11;100.00;95851.03;5071201;28;20694;-60
2021/05/26 02:57:57;;;;;;;1999.90;999.90;;;;;;;15.14;100.00;95850.44;5071118;28;20188;-60
2021/05/26 03:00:25;;;;;;;1999.90;999.90;;;;;;;15.22;100.00;95862.72;5071471;28;20253;-60
2021/05/26 03:02:52;;;;;;;1999.90;999.90;;;;;;;15.15;100.00;95867.66;5071124;28;20660;-60
2021/05/26 03:05:21;;;;;;;1999.90;999.90;;;;;;;15.15;100.00;95861.66;5071338;28;20224;-60
2021/05/26 03:07:48;;;;;;;1999.90;999.90;;;;;;;15.12;100.00;95873.53;5070999;28;20199;-58
2021/05/26 03:10:17;;;;;;;1999.90;999.90;;;;;;;15.15;100.00;95862.41;5070875;28;20703;-60
2021/05/26 03:12:44;;;;;;;1999.90;999.90;;;;;;;15.14;100.00;95862.75;5071165;28;20287;-60
2021/05/26 03:15:13;;;;;;;1999.90;999.90;;;;;;;15.14;100.00;95868.75;5070932;28;20603;-60
2021/05/26 03:17:40;;;;;;;1999.90;999.90;;;;;;;15.05;100.00;95870.59;5071058;28;20199;-60
2021/05/26 03:20:13;;;;;;;1999.90;999.90;;;;;;;14.99;100.00;95871.88;5070947;28;20278;-60
2021/05/26 03:22:42;;;;;;;1999.90;999.90;;;;;;;15.20;100.00;95872.72;5070715;28;20200;-60
2021/05/26 03:25:11;;;;;;;1999.90;999.90;;;;;;;15.24;100.00;95885.97;5070709;28;20196;-60
2021/05/26 03:27:39;;;;;;;1999.90;999.90;;;;;;;15.23;100.00;95884.44;5070688;28;20197;-61
2021/05/26 03:30:08;;;;;;;1999.90;999.90;;;;;;;15.26;100.00;95892.44;5070587;28;20309;-60
2021/05/26 03:32:35;;;;;;;1999.90;999.90;;;;;;;15.34;100.00;95889.00;5070543;28;20196;-60
2021/05/26 03:35:04;;;;;;;1999.90;999.90;;;;;;;15.35;100.00;95887.91;5070602;28;20192;-60
2021/05/26 03:37:31;;;;;;;1999.90;999.90;;;;;;;15.46;100.00;95894.38;5070462;28;20196;-60
2021/05/26 03:39:59;;;;;;;1999.90;999.90;;;;;;;15.49;100.00;95893.72;5070425;28;20188;-61
2021/05/26 03:42:26;;;;;;;1999.90;999.90;;;;;;;15.55;100.00;95901.44;5070420;28;20193;-60
2021/05/26 03:44:54;;;;;;;1999.90;999.90;;;;;;;15.67;100.00;95907.56;5070054;28;20682;-59
2021/05/26 03:47:20;;;;;;;1999.90;999.90;;;;;;;15.78;100.00;95905.38;5070253;28;20237;-59
2021/05/26 03:49:47;;;;;;;1999.90;999.90;;;;;;;15.72;100.00;95906.63;5070204;28;20236;-59
2021/05/26 03:52:14;;;;;;;1999.90;999.90;;;;;;;15.74;100.00;95894.72;5070292;28;20231;-59
2021/05/26 03:54:41;;;;;;;1999.90;999.90;;;;;;;15.65;100.00;95895.84;5070548;28;20668;-59
2021/05/26 03:57:09;;;;;;;1999.90;999.90;;;;;;;15.78;100.00;95892.25;5070491;28;20200;-59
2021/05/26 03:59:35;;;;;;;1999.90;999.90;;;;;;;15.79;100.00;95899.78;5070564;28;20275;-59
2021/05/26 04:02:02;;;;;;;1999.90;999.90;;;;;;;15.81;100.00;95905.50;5070120;28;20189;-58
2021/05/26 04:04:29;;;;;;;1999.90;999.90;;;;;;;15.95;100.00;95897.41;5070152;28;20188;-59
2021/05/26 04:06:56;;;;;;;1999.90;999.90;;;;;;;16.15;100.00;95899.28;5070190;28;20188;-60
2021/05/26 04:09:23;;;;;;;1999.90;999.90;;;;;;;16.23;100.00;95900.34;5070222;28;20722;-59
2021/05/26 04:11:54;;;;;;;1999.90;999.90;;;;;;;16.22;100.00;95904.03;5069952;28;20325;-61
2021/05/26 04:14:21;;;;;;;1999.90;999.90;;;;;;;16.36;100.00;95901.94;5070240;28;20200;-60
2021/05/26 04:16:48;;;;;;;1999.90;999.90;;;;;;;16.48;100.00;95915.13;5070087;28;20200;-60
2021/05/26 04:19:15;;;;;;;1999.90;999.90;;;;;;;16.62;100.00;95913.03;5069390;28;20192;-60
2021/05/26 04:21:42;;;;;;;1999.90;999.90;;;;;;;16.77;100.00;95914.31;5070195;28;20284;-61
2021/05/26 04:24:09;;;;;;;1999.90;999.90;;;;;;;16.93;100.00;95906.59;5069743;28;20294;-60
2021/05/26 04:26:36;;;;;;;1999.90;999.90;;;;;;;16.91;100.00;95917.44;5070113;28;20758;-60
2021/05/26 04:29:08;;;;;;;1999.90;999.90;;;;;;;16.99;100.00;95910.53;5070461;28;20206;-60
2021/05/26 04:31:50;;;;;;;1999.90;999.90;;;;;;;17.17;100.00;95919.81;5070122;28;20196;-59
2021/05/26 04:34:18;;;;;;;1999.90;999.90;;;;;;;17.33;100.00;95914.72;5069806;28;20200;-59
2021/05/26 04:36:44;;;;;;;1999.90;999.90;;;;;;;17.34;100.00;95916.22;5069739;28;20192;-59
2021/05/26 04:39:11;;;;;;;1999.90;999.90;;;;;;;17.37;100.00;95926.88;5069678;28;20192;-62
2021/05/26 04:41:38;;;;;;;1999.90;999.90;;;;;;;17.27;100.00;95916.00;5069820;28;20197;-60
2021/05/26 04:44:06;;;;;;;1999.90;999.90;;;;;;;17.33;100.00;95926.00;5069750;28;20192;-61
2021/05/26 04:46:32;;;;;;;1999.90;999.90;;;;;;;17.38;100.00;95927.63;5069920;28;20275;-60
2021/05/26 04:49:00;;;;;;;1999.90;999.90;;;;;;;17.34;100.00;95935.38;5070124;28;20226;-61
2021/05/26 04:51:27;;;;;;;1999.90;999.90;;;;;;;17.28;100.00;95938.56;5069360;28;20228;-61
2021/05/26 04:53:54;;;;;;;1999.90;999.90;;;;;;;17.14;100.00;95938.81;5069391;28;20200;-60
2021/05/26 04:56:24;;;;;;;1999.90;999.90;;;;;;;16.98;100.00;95936.06;5073684;28;20192;-60
2021/05/26 04:58:51;;;;;;;1999.90;999.90;;;;;;;17.04;100.00;95937.38;5073836;28;20224;-60
2021/05/26 05:01:17;;;;;;;1999.90;999.90;;;;;;;16.92;100.00;95934.72;5073764;28;20213;-60
2021/05/26 05:03:45;;;;;;;1999.90;999.90;;;;;;;16.92;100.00;95942.59;5073750;28;20204;-60
2021/05/26 05:06:13;;;;;;;1999.90;999.90;;;;;;;17.02;100.00;95933.56;5073531;28;20193;-60
2021/05/26 05:08:44;;;;;;;1999.90;999.90;;;;;;;17.15;100.00;95940.38;5073603;28;20201;-61
2021/05/26 05:11:12;;;;;;;1999.90;999.90;;;;;;;17.33;100.00;95936.50;5073289;28;20224;-59
2021/05/26 05:13:38;;;;;;;1999.90;999.90;;;;;;;17.46;100.00;95939.91;5073250;28;20740;-60
2021/05/26 05:16:05;;;;;;;1999.90;999.90;;;;;;;17.34;100.00;95940.63;5073135;28;20192;-59
2021/05/26 05:18:32;;;;;;;1999.90;999.90;;;;;;;17.60;100.00;95943.78;5073117;28;20663;-60
2021/05/26 05:20:59;;;;;;;1999.90;999.90;;;;;;;17.75;96.48;95944.25;5073190;28;20607;-61
2021/05/26 05:23:27;;;;;;;1999.90;999.90;;;;;;;17.74;96.37;95954.00;5072925;28;20217;-60
2021/05/26 05:25:54;;;;;;;1999.90;999.90;;;;;;;17.59;96.61;95965.13;5073373;28;20231;-59
2021/05/26 05:28:22;;;;;;;1999.90;999.90;;;;;;;17.67;96.11;95955.63;5073437;28;20207;-61
2021/05/26 05:30:49;;;;;;;1999.90;999.90;;;;;;;17.66;93.82;95957.50;5072769;28;20220;-60
2021/05/26 05:33:15;;;;;;;1999.90;999.90;;;;;;;17.87;93.17;95955.56;5072843;28;20228;-60
2021/05/26 05:35:42;;;;;;;1999.90;999.90;;;;;;;17.70;92.06;95971.53;5072720;28;20238;-59
2021/05/26 05:38:09;;;;;;;1999.90;999.90;;;;;;;17.55;93.30;95959.75;5072895;28;20266;-58
2021/05/26 05:40:37;;;;;;;1999.90;999.90;;;;;;;17.41;91.88;95966.41;5072648;28;20739;-61
2021/05/26 05:43:04;;;;;;;1999.90;999.90;;;;;;;17.26;91.71;95967.78;5072706;28;20201;-60
2021/05/26 05:45:30;;;;;;;1999.90;999.90;;;;;;;17.11;92.88;95974.41;5072906;28;20279;-61
2021/05/26 05:47:57;;;;;;;1999.90;999.90;;;;;;;17.06;93.31;95964.09;5072531;28;20275;-61
2021/05/26 05:50:24;;;;;;;1999.90;999.90;;;;;;;17.15;93.53;95967.41;5072421;28;20365;-61
2021/05/26 05:52:51;;;;;;;1999.90;999.90;;;;;;;17.19;92.51;95983.28;5072728;28;20196;-61
2021/05/26 05:55:18;;;;;;;1999.90;999.90;;;;;;;17.02;93.26;95973.72;5072648;28;20215;-59
2021/05/26 05:57:45;;;;;;;1999.90;999.90;;;;;;;16.95;93.31;95970.81;5072464;28;20193;-60
2021/05/26 06:00:13;;;;;;;1999.90;999.90;;;;;;;16.93;93.55;95970.41;5072472;28;20192;-58
2021/05/26 06:02:40;;;;;;;1999.90;999.90;;;;;;;17.00;93.51;95969.84;5072457;28;20586;-60
2021/05/26 06:05:08;;;;;;;1999.90;999.90;;;;;;;17.12;93.21;95972.53;5072370;28;20203;-59
2021/05/26 06:07:35;;;;;;;1999.90;999.90;;;;;;;17.19;92.99;95968.28;5071467;28;20196;-59
2021/05/26 06:10:01;;;;;;;1999.90;999.90;;;;;;;17.35;92.56;95968.44;5072485;28;20699;-60
2021/05/26 06:12:28;;;;;;;1999.90;999.90;;;;;;;17.36;93.06;95971.84;5072249;28;20193;-59
2021/05/26 06:14:56;;;;;;;1999.90;999.90;;;;;;;17.39;92.77;95974.59;5072712;28;20287;-60
2021/05/26 06:17:23;;;;;;;1999.90;999.90;;;;;;;17.44;92.81;95976.25;5071413;28;20433;-60
2021/05/26 06:19:49;;;;;;;1999.90;999.90;;;;;;;17.58;91.24;95974.84;5071869;28;20228;-61
2021/05/26 06:22:16;;;;;;;1999.90;999.90;;;;;;;17.69;91.02;95972.59;5072113;28;20196;-61
2021/05/26 06:24:43;;;;;;;1999.90;999.90;;;;;;;17.64;90.88;95964.94;5071824;28;20217;-60
2021/05/26 06:27:10;;;;;;;1999.90;999.90;;;;;;;17.84;90.37;95971.97;5072007;28;20284;-60
2021/05/26 06:29:37;;;;;;;1999.90;999.90;;;;;;;17.78;90.00;95967.28;5071881;28;20224;-59
2021/05/26 06:32:05;;;;;;;1999.90;999.90;;;;;;;17.87;91.48;95963.44;5072016;28;20193;-60
2021/05/26 06:34:32;;;;;;;1999.90;999.90;;;;;;;18.11;89.84;95969.81;5071754;28;20199;-60
2021/05/26 06:36:59;;;;;;;1999.90;999.90;;;;;;;18.18;88.43;95977.94;5071722;28;20193;-61
2021/05/26 06:39:25;;;;;;;1999.90;999.90;;;;;;;18.30;87.95;95972.63;5071578;28;20762;-60
2021/05/26 06:41:52;;;;;;;1999.90;999.90;;;;;;;18.02;87.74;95975.19;5072090;28;20241;-60
2021/05/26 06:44:19;;;;;;;1999.90;999.90;;;;;;;17.95;88.65;95980.19;5071930;28;20208;-60
2021/05/26 06:46:46;;;;;;;1999.90;999.90;;;;;;;18.08;89.02;95973.09;5071578;28;20192;-60
2021/05/26 06:49:14;;;;;;;1999.90;999.90;;;;;;;18.30;88.07;95967.38;5071478;28;20680;-59
2021/05/26 06:51:40;;;;;;;1999.90;999.90;;;;;;;18.35;87.24;95970.56;5071243;28;20234;-60
2021/05/26 06:54:07;;;;;;;1999.90;999.90;;;;;;;18.47;87.05;95972.41;5071423;28;20199;-60
2021/05/26 06:56:34;;;;;;;1999.90;999.90;;;;;;;18.77;86.21;95975.56;5071473;28;20231;-60
2021/05/26 06:59:02;;;;;;;1999.90;999.90;;;;;;;19.16;84.76;95974.78;5071224;28;20732;-60
2021/05/26 07:01:29;;;;;;;1999.90;999.90;;;;;;;19.52;83.47;95973.88;5071098;28;20291;-59
2021/05/26 07:03:57;;;;;;;1999.90;999.90;;;;;;;19.70;82.70;95975.06;5071334;28;20189;-60
2021/05/26 07:06:24;;;;;;;1999.90;999.90;;;;;;;19.91;80.35;95974.06;5071241;28;20251;-60
2021/05/26 07:08:51;;;;;;;1999.90;999.90;;;;;;;19.95;81.72;95969.63;5071250;28;20602;-61
2021/05/26 07:11:19;;;;;;;1999.90;999.90;;;;;;;19.90;80.43;95968.00;5070882;28;20232;-62
2021/05/26 07:13:46;;;;;;;1999.90;999.90;;;;;;;19.63;79.56;95974.88;5070940;28;20579;-59
2021/05/26 07:16:14;;;;;;;1999.90;999.90;;;;;;;19.39;80.44;95969.72;5070936;28;20201;-59
2021/05/26 07:18:45;;;;;;;1999.90;999.90;;;;;;;19.49;80.19;95963.97;5071299;28;20718;-61
2021/05/26 07:21:13;;;;;;;1999.90;999.90;;;;;;;19.47;79.55;95966.19;5070552;28;20228;-60
2021/05/26 07:23:41;;;;;;;1999.90;999.90;;;;;;;19.03;81.08;95969.91;5070758;28;20212;-61
2021/05/26 07:26:11;;;;;;;1999.90;999.90;;;;;;;19.25;80.89;95964.06;5070908;28;20201;-60
2021/05/26 07:28:41;;;;;;;1999.90;999.90;;;;;;;19.35;80.42;95967.00;5071201;28;20702;-62
2021/05/26 07:31:09;;;;;;;1999.90;999.90;;;;;;;19.37;80.17;95964.03;5071926;28;20238;-60
2021/05/26 07:33:37;;;;;;;1999.90;999.90;;;;;;;19.19;81.72;95960.16;5071075;28;20733;-60
2021/05/26 07:36:05;;;;;;;1999.90;999.90;;;;;;;19.32;80.86;95964.28;5071124;28;20193;-60
2021/05/26 07:38:33;;;;;;;1999.90;999.90;;;;;;;19.72;80.16;95967.59;5071099;28;20197;-61
2021/05/26 07:41:02;;;;;;;1999.90;999.90;;;;;;;20.00;78.88;95969.38;5070937;28;20196;-60
2021/05/26 07:43:32;;;;;;;1999.90;999.90;;;;;;;20.19;77.74;95964.16;5071317;28;20205;-59
2021/05/26 07:46:00;;;;;;;1999.90;999.90;;;;;;;20.44;78.06;95962.09;5071990;28;20200;-61
2021/05/26 07:48:27;;;;;;;1999.90;999.90;;;;;;;20.77;75.08;95969.59;5071814;28;20666;-60
2021/05/26 07:50:56;;;;;;;1999.90;999.90;;;;;;;20.65;74.80;95970.47;5071706;28;20228;-60
2021/05/26 07:53:24;;;;;;;1999.90;999.90;;;;;;;20.41;75.41;95960.91;5072167;28;20274;-61
2021/05/26 07:55:51;;;;;;;1999.90;999.90;;;;;;;20.20;75.43;95965.69;5071515;28;20622;-60
2021/05/26 07:58:19;;;;;;;1999.90;999.90;;;;;;;20.67;76.64;95959.56;5072079;28;20319;-60
2021/05/26 08:00:46;;;;;;;1999.90;999.90;;;;;;;20.94;75.00;95955.97;5071728;28;20287;-61
2021/05/26 08:03:14;;;;;;;1999.90;999.90;;;;;;;21.32;73.64;95963.88;5071373;28;20283;-63
2021/05/26 08:05:41;;;;;;;1999.90;999.90;;;;;;;21.16;71.93;95960.59;5071513;28;20250;-61
2021/05/26 08:08:09;;;;;;;1999.90;999.90;;;;;;;20.73;72.77;95958.16;5071046;28;20205;-60
2021/05/26 08:10:36;;;;;;;1999.90;999.90;;;;;;;20.86;74.92;95959.59;5071316;28;20609;-60
2021/05/26 08:13:03;;;;;;;1999.90;999.90;;;;;;;21.12;74.28;95961.59;5070682;28;20196;-61
2021/05/26 08:15:30;;;;;;;1999.90;999.90;;;;;;;21.13;73.83;95953.31;5070433;28;20295;-59
2021/05/26 08:17:57;;;;;;;1999.90;999.90;;;;;;;21.68;72.58;95952.06;5070371;28;20881;-60
2021/05/26 08:20:24;;;;;;;1999.90;999.90;;;;;;;21.94;72.84;95947.97;5070468;28;20232;-61
2021/05/26 08:22:51;;;;;;;1999.90;999.90;;;;;;;22.05;70.79;95943.59;5069839;28;20225;-61
2021/05/26 08:25:18;;;;;;;1999.90;999.90;;;;;;;22.02;69.74;95947.69;5070138;28;20192;-61
2021/05/26 08:27:45;;;;;;;1999.90;999.90;;;;;;;22.20;70.68;95935.50;5070079;28;20345;-61
2021/05/26 08:30:12;;;;;;;1999.90;999.90;;;;;;;22.32;69.72;95943.22;5074371;28;20224;-61
2021/05/26 08:32:40;;;;;;;1999.90;999.90;;;;;;;22.42;68.97;95944.50;5076739;28;20201;-61
2021/05/26 08:35:07;;;;;;;1999.90;999.90;;;;;;;22.67;68.93;95936.88;5076497;28;20238;-61
2021/05/26 08:37:34;;;;;;;1999.90;999.90;;;;;;;22.77;67.11;95944.22;5076457;28;20196;-60
2021/05/26 08:40:01;;;;;;;1999.90;999.90;;;;;;;22.93;67.71;95941.38;5076767;28;20192;-61
2021/05/26 08:42:29;;;;;;;1999.90;999.90;;;;;;;22.87;67.90;95938.28;5076847;28;20196;-60
2021/05/26 08:44:56;;;;;;;1999.90;999.90;;;;;;;23.13;67.28;95932.91;5076336;28;20284;-59
2021/05/26 08:47:27;;;;;;;1999.90;999.90;;;;;;;23.15;65.30;95935.22;5076297;28;20227;-61
2021/05/26 08:49:55;;;;;;;1999.90;999.90;;;;;;;23.06;65.87;95932.81;5076485;28;20220;-62
2021/05/26 08:52:22;;;;;;;1999.90;999.90;;;;;;;23.11;66.28;95929.84;5076312;28;20565;-61
2021/05/26 08:54:49;;;;;;;1999.90;999.90;;;;;;;22.93;66.76;95931.56;5076545;28;20580;-61
2021/05/26 08:57:16;;;;;;;1999.90;999.90;;;;;;;23.11;67.30;95934.41;5076371;28;20200;-61
2021/05/26 08:59:44;;;;;;;1999.90;999.90;;;;;;;23.33;66.39;95930.06;5076282;28;20615;-61
2021/05/26 09:02:11;;;;;;;1999.90;999.90;;;;;;;22.88;65.48;95931.88;5076429;28;20200;-59
2021/05/26 09:04:39;;;;;;;1999.90;999.90;;;;;;;22.87;67.21;95930.34;5076131;28;20200;-60
2021/05/26 09:07:08;;;;;;;1999.90;999.90;;;;;;;23.08;66.33;95927.94;5076106;28;20207;-60
2021/05/26 09:09:47;;;;;;;1999.90;999.90;;;;;;;23.19;64.87;95930.69;5076282;28;20231;-60
2021/05/26 09:12:15;;;;;;;1999.90;999.90;;;;;;;23.31;63.99;95924.41;5076298;28;20280;-60
2021/05/26 09:14:42;;;;;;;1999.90;999.90;;;;;;;23.33;63.14;95930.06;5076129;28;20594;-60
2021/05/26 09:17:10;;;;;;;1999.90;999.90;;;;;;;23.45;63.97;95922.66;5076133;28;20195;-61
2021/05/26 09:19:37;;;;;;;1999.90;999.90;;;;;;;23.63;63.04;95914.84;5075668;28;20310;-61
2021/05/26 09:22:11;;;;;;;1999.90;999.90;;;;;;;23.43;64.72;95911.63;5076195;28;20192;-60
2021/05/26 09:24:40;;;;;;;1999.90;999.90;;;;;;;23.45;64.76;95913.94;5076005;28;20212;-60
2021/05/26 09:27:09;;;;;;;1999.90;999.90;;;;;;;23.69;64.51;95913.38;5076213;28;20212;-60
2021/05/26 09:29:38;;;;;;;1999.90;999.90;;;;;;;23.94;66.92;95898.41;5076216;28;20655;-61
2021/05/26 09:32:21;;;;;;;1999.90;999.90;;;;;;;23.89;65.04;95901.41;5075967;28;20188;-61
2021/05/26 09:34:49;;;;;;;1999.90;999.90;;;;;;;24.16;64.43;95895.91;5074427;28;20196;-61
2021/05/26 09:37:19;;;;;;;1999.90;999.90;;;;;;;24.58;63.25;95893.47;5075931;28;20204;-60
2021/05/26 09:39:54;;;;;;;1999.90;999.90;;;;;;;24.62;62.93;95886.28;5076099;28;20200;-60
2021/05/26 09:42:31;;;;;;;1999.90;999.90;;;;;;;25.05;61.22;95889.13;5072727;28;20240;-61
2021/05/26 09:45:13;;;;;;;1999.90;999.90;;;;;;;25.18;61.41;95885.72;5073029;28;20204;-61
2021/05/26 09:47:42;;;;;;;1999.90;999.90;;;;;;;25.27;61.92;95880.03;5072741;28;20204;-60
2021/05/26 09:50:31;;;;;;;1999.90;999.90;;;;;;;25.06;61.04;95879.97;5072487;28;20228;-60
2021/05/26 09:53:04;;;;;;;1999.90;999.90;;;;;;;25.23;61.45;95873.94;5068206;28;20598;-59
2021/05/26 09:55:33;;;;;;;1999.90;999.90;;;;;;;25.14;61.24;95871.66;5072894;28;20200;-61
2021/05/26 09:58:00;;;;;;;1999.90;999.90;;;;;;;25.40;60.75;95875.13;5072823;28;20200;-60
2021/05/26 10:00:28;;;;;;;1999.90;999.90;;;;;;;25.23;59.88;95872.06;5072658;28;20200;-59
2021/05/26 10:02:55;;;;;;;1999.90;999.90;;;;;;;25.43;61.13;95861.81;5072387;28;20789;-61
2021/05/26 10:05:24;;;;;;;1999.90;999.90;;;;;;;25.93;62.10;95854.59;5072393;28;20213;-60
2021/05/26 10:07:52;;;;;;;1999.90;999.90;;;;;;;25.96;59.28;95847.72;5072677;28;20243;-60
2021/05/26 10:10:21;;;;;;;1999.90;999.90;;;;;;;25.63;58.59;95854.22;5072531;28;20243;-59
2021/05/26 10:12:53;;;;;;;1999.90;999.90;;;;;;;25.75;60.27;95843.19;5072345;28;20196;-60
2021/05/26 10:15:22;;;;;;;1999.90;999.90;;;;;;;26.00;58.70;95840.50;5072300;28;20615;-59
2021/05/26 10:17:53;;;;;;;1999.90;999.90;;;;;;;26.02;57.41;95824.88;5072252;28;20200;-61
2021/05/26 10:20:22;;;;;;;1999.90;999.90;;;;;;;26.17;59.62;95828.25;5071730;28;20765;-58
2021/05/26 10:22:52;;;;;;;1999.90;999.90;;;;;;;26.34;58.54;95817.59;5072036;28;20647;-61
2021/05/26 10:25:21;;;;;;;1999.90;999.90;;;;;;;26.40;58.95;95818.69;5072388;28;20196;-63
2021/05/26 10:27:49;;;;;;;1999.90;999.90;;;;;;;26.49;59.24;95816.38;5071787;28;20257;-60
2021/05/26 10:30:18;;;;;;;1999.90;999.90;;;;;;;26.42;58.61;95811.06;5072422;28;20266;-60
2021/05/26 10:32:54;;;;;;;1999.90;999.90;;;;;;;26.36;58.81;95807.28;5071881;28;20220;-59
2021/05/26 10:35:21;;;;;;;1999.90;999.90;;;;;;;26.50;58.77;95801.88;5071798;28;20654;-61
2021/05/26 10:38:02;;;;;;;1999.90;999.90;;;;;;;26.74;57.32;95792.25;5071802;28;20774;-61
2021/05/26 10:40:44;;;;;;;1999.90;999.90;;;;;;;26.39;57.30;95787.09;5071872;28;20208;-60
2021/05/26 10:43:32;;;;;;;1999.90;999.90;;;;;;;26.14;58.24;95784.50;5071762;28;20200;-60
2021/05/26 10:46:04;;;;;;;1999.90;999.90;;;;;;;26.16;58.17;95782.19;5071760;28;20206;-61
2021/05/26 10:49:06;;;;;;;1999.90;999.90;;;;;;;25.89;57.53;95778.50;5071388;28;20236;-61
2021/05/26 10:52:08;;;;;;;1999.90;999.90;;;;;;;25.17;61.22;95769.03;5009619;28;20261;-62
2021/05/26 10:54:59;;;;;;;1999.90;999.90;;;;;;;25.66;63.43;95765.59;5071433;28;20192;-61
2021/05/26 10:57:28;;;;;;;1999.90;999.90;;;;;;;26.27;61.65;95761.63;5071609;28;20209;-61
2021/05/26 11:00:29;;;;;;;1999.90;999.90;;;;;;;26.39;58.03;95761.22;5071301;28;20721;-62